sensor_id;sensor_type;location;lat;lon;timestamp;P1;durP1;ratioP1;P2;durP2;ratioP2
78860;SDS011;68211;45.774;15.892;2023-07-13T00:00:36;31.30;;;9.25;;
78860;SDS011;68211;45.774;15.892;2023-07-13T00:03:03;26.08;;;9.23;;
78860;SDS011;68211;45.774;15.892;2023-07-13T00:05:30;30.77;;;9.07;;
78860;SDS011;68211;45.774;15.892;2023-07-13T00:07:56;41.30;;;9.48;;
78860;SDS011;68211;45.774;15.892;2023-07-13T00:10:23;24.75;;;9.10;;
78860;SDS011;68211;45.774;15.892;2023-07-13T00:12:50;30.30;;;9.02;;
78860;SDS011;68211;45.774;15.892;2023-07-13T00:15:18;22.40;;;8.68;;
78860;SDS011;68211;45.774;15.892;2023-07-13T00:20:11;24.20;;;8.50;;
78860;SDS011;68211;45.774;15.892;2023-07-13T00:22:38;26.42;;;9.10;;
78860;SDS011;68211;45.774;15.892;2023-07-13T00:25:05;27.85;;;8.85;;
78860;SDS011;68211;45.774;15.892;2023-07-13T00:27:32;25.10;;;8.95;;
78860;SDS011;68211;45.774;15.892;2023-07-13T00:29:58;24.40;;;8.95;;
78860;SDS011;68211;45.774;15.892;2023-07-13T00:32:26;31.05;;;9.25;;
78860;SDS011;68211;45.774;15.892;2023-07-13T00:34:53;21.02;;;8.63;;
78860;SDS011;68211;45.774;15.892;2023-07-13T00:37:19;25.80;;;9.20;;
78860;SDS011;68211;45.774;15.892;2023-07-13T00:39:46;25.10;;;9.85;;
78860;SDS011;68211;45.774;15.892;2023-07-13T00:42:12;25.10;;;9.20;;
78860;SDS011;68211;45.774;15.892;2023-07-13T00:44:39;23.35;;;9.43;;
78860;SDS011;68211;45.774;15.892;2023-07-13T00:47:05;27.10;;;8.93;;
78860;SDS011;68211;45.774;15.892;2023-07-13T00:49:33;22.10;;;9.18;;
78860;SDS011;68211;45.774;15.892;2023-07-13T00:52:02;28.42;;;10.43;;
78860;SDS011;68211;45.774;15.892;2023-07-13T00:54:30;34.65;;;10.25;;
78860;SDS011;68211;45.774;15.892;2023-07-13T00:56:59;36.15;;;9.82;;
78860;SDS011;68211;45.774;15.892;2023-07-13T00:59:26;35.65;;;10.27;;
78860;SDS011;68211;45.774;15.892;2023-07-13T01:01:53;29.73;;;9.50;;
78860;SDS011;68211;45.774;15.892;2023-07-13T01:04:20;36.47;;;10.80;;
78860;SDS011;68211;45.774;15.892;2023-07-13T01:06:48;24.02;;;9.23;;
78860;SDS011;68211;45.774;15.892;2023-07-13T01:09:15;27.23;;;10.27;;
78860;SDS011;68211;45.774;15.892;2023-07-13T01:11:41;28.10;;;10.38;;
78860;SDS011;68211;45.774;15.892;2023-07-13T01:14:08;26.98;;;10.35;;
78860;SDS011;68211;45.774;15.892;2023-07-13T01:16:35;29.75;;;9.82;;
78860;SDS011;68211;45.774;15.892;2023-07-13T01:19:03;25.75;;;10.23;;
78860;SDS011;68211;45.774;15.892;2023-07-13T01:21:35;32.15;;;9.60;;
78860;SDS011;68211;45.774;15.892;2023-07-13T01:24:01;26.25;;;10.63;;
78860;SDS011;68211;45.774;15.892;2023-07-13T01:26:28;30.73;;;10.65;;
78860;SDS011;68211;45.774;15.892;2023-07-13T01:28:54;31.48;;;12.05;;
78860;SDS011;68211;45.774;15.892;2023-07-13T01:31:21;31.25;;;10.48;;
78860;SDS011;68211;45.774;15.892;2023-07-13T01:33:47;25.40;;;10.70;;
78860;SDS011;68211;45.774;15.892;2023-07-13T01:36:14;23.45;;;10.35;;
78860;SDS011;68211;45.774;15.892;2023-07-13T01:38:41;24.67;;;11.40;;
78860;SDS011;68211;45.774;15.892;2023-07-13T01:41:10;30.55;;;10.90;;
78860;SDS011;68211;45.774;15.892;2023-07-13T01:43:36;29.02;;;10.68;;
78860;SDS011;68211;45.774;15.892;2023-07-13T01:46:03;26.10;;;10.20;;
78860;SDS011;68211;45.774;15.892;2023-07-13T01:48:48;27.85;;;10.80;;
78860;SDS011;68211;45.774;15.892;2023-07-13T01:51:15;16.88;;;9.50;;
78860;SDS011;68211;45.774;15.892;2023-07-13T01:53:42;31.02;;;11.35;;
78860;SDS011;68211;45.774;15.892;2023-07-13T01:56:09;23.80;;;10.93;;
78860;SDS011;68211;45.774;15.892;2023-07-13T01:58:36;25.73;;;10.13;;
78860;SDS011;68211;45.774;15.892;2023-07-13T02:01:02;33.00;;;11.50;;
78860;SDS011;68211;45.774;15.892;2023-07-13T02:03:29;36.15;;;10.80;;
78860;SDS011;68211;45.774;15.892;2023-07-13T02:05:55;32.90;;;11.05;;
78860;SDS011;68211;45.774;15.892;2023-07-13T02:08:22;36.35;;;12.00;;
78860;SDS011;68211;45.774;15.892;2023-07-13T02:10:50;25.73;;;11.05;;
78860;SDS011;68211;45.774;15.892;2023-07-13T02:13:16;27.77;;;11.65;;
78860;SDS011;68211;45.774;15.892;2023-07-13T02:15:43;38.90;;;12.45;;
78860;SDS011;68211;45.774;15.892;2023-07-13T02:18:09;36.20;;;12.70;;
78860;SDS011;68211;45.774;15.892;2023-07-13T02:20:36;28.52;;;12.10;;
78860;SDS011;68211;45.774;15.892;2023-07-13T02:23:02;35.00;;;11.07;;
78860;SDS011;68211;45.774;15.892;2023-07-13T02:25:30;31.75;;;11.50;;
78860;SDS011;68211;45.774;15.892;2023-07-13T02:27:57;35.70;;;11.18;;
78860;SDS011;68211;45.774;15.892;2023-07-13T02:30:24;33.20;;;11.98;;
78860;SDS011;68211;45.774;15.892;2023-07-13T02:32:50;32.83;;;11.90;;
78860;SDS011;68211;45.774;15.892;2023-07-13T02:35:17;32.53;;;11.13;;
78860;SDS011;68211;45.774;15.892;2023-07-13T02:37:43;26.52;;;10.73;;
78860;SDS011;68211;45.774;15.892;2023-07-13T02:40:10;35.50;;;11.38;;
78860;SDS011;68211;45.774;15.892;2023-07-13T02:42:36;35.80;;;11.82;;
78860;SDS011;68211;45.774;15.892;2023-07-13T02:45:07;31.00;;;10.75;;
78860;SDS011;68211;45.774;15.892;2023-07-13T02:47:34;31.15;;;10.70;;
78860;SDS011;68211;45.774;15.892;2023-07-13T02:50:00;33.15;;;10.82;;
78860;SDS011;68211;45.774;15.892;2023-07-13T02:52:27;30.60;;;11.57;;
78860;SDS011;68211;45.774;15.892;2023-07-13T02:54:53;26.00;;;10.23;;
78860;SDS011;68211;45.774;15.892;2023-07-13T02:57:20;31.58;;;10.57;;
78860;SDS011;68211;45.774;15.892;2023-07-13T02:59:46;29.52;;;10.18;;
78860;SDS011;68211;45.774;15.892;2023-07-13T03:02:14;26.63;;;9.70;;
78860;SDS011;68211;45.774;15.892;2023-07-13T03:04:41;22.50;;;9.10;;
78860;SDS011;68211;45.774;15.892;2023-07-13T03:07:07;28.35;;;10.20;;
78860;SDS011;68211;45.774;15.892;2023-07-13T03:09:34;25.83;;;8.45;;
78860;SDS011;68211;45.774;15.892;2023-07-13T03:12:01;32.42;;;8.77;;
78860;SDS011;68211;45.774;15.892;2023-07-13T03:14:28;17.23;;;7.07;;
78860;SDS011;68211;45.774;15.892;2023-07-13T03:16:54;14.10;;;6.38;;
78860;SDS011;68211;45.774;15.892;2023-07-13T03:19:22;17.30;;;5.82;;
78860;SDS011;68211;45.774;15.892;2023-07-13T03:21:49;14.60;;;5.47;;
78860;SDS011;68211;45.774;15.892;2023-07-13T03:24:15;15.68;;;5.43;;
78860;SDS011;68211;45.774;15.892;2023-07-13T03:26:42;15.45;;;5.32;;
78860;SDS011;68211;45.774;15.892;2023-07-13T03:29:08;14.57;;;5.25;;
78860;SDS011;68211;45.774;15.892;2023-07-13T03:31:35;15.93;;;5.50;;
78860;SDS011;68211;45.774;15.892;2023-07-13T03:34:02;19.00;;;4.97;;
78860;SDS011;68211;45.774;15.892;2023-07-13T03:36:30;18.73;;;5.10;;
78860;SDS011;68211;45.774;15.892;2023-07-13T03:38:57;25.73;;;5.47;;
78860;SDS011;68211;45.774;15.892;2023-07-13T03:41:24;18.77;;;5.45;;
78860;SDS011;68211;45.774;15.892;2023-07-13T03:43:51;9.90;;;4.43;;
78860;SDS011;68211;45.774;15.892;2023-07-13T03:46:18;11.48;;;4.70;;
78860;SDS011;68211;45.774;15.892;2023-07-13T03:48:45;10.90;;;4.03;;
78860;SDS011;68211;45.774;15.892;2023-07-13T03:51:12;13.57;;;3.47;;
78860;SDS011;68211;45.774;15.892;2023-07-13T03:53:42;13.45;;;2.58;;
78860;SDS011;68211;45.774;15.892;2023-07-13T03:56:09;13.77;;;2.80;;
78860;SDS011;68211;45.774;15.892;2023-07-13T03:58:36;10.23;;;2.47;;
78860;SDS011;68211;45.774;15.892;2023-07-13T04:01:04;9.93;;;2.17;;
78860;SDS011;68211;45.774;15.892;2023-07-13T04:03:32;12.65;;;2.10;;
78860;SDS011;68211;45.774;15.892;2023-07-13T04:05:58;6.35;;;1.95;;
78860;SDS011;68211;45.774;15.892;2023-07-13T04:08:25;5.28;;;1.70;;
78860;SDS011;68211;45.774;15.892;2023-07-13T04:10:53;6.00;;;2.03;;
78860;SDS011;68211;45.774;15.892;2023-07-13T04:13:20;3.95;;;1.83;;
78860;SDS011;68211;45.774;15.892;2023-07-13T04:15:47;9.73;;;1.85;;
78860;SDS011;68211;45.774;15.892;2023-07-13T04:18:13;5.32;;;1.45;;
78860;SDS011;68211;45.774;15.892;2023-07-13T04:20:40;9.45;;;1.90;;
78860;SDS011;68211;45.774;15.892;2023-07-13T04:23:06;5.32;;;1.88;;
78860;SDS011;68211;45.774;15.892;2023-07-13T04:25:33;6.97;;;1.92;;
78860;SDS011;68211;45.774;15.892;2023-07-13T04:28:01;5.78;;;1.85;;
78860;SDS011;68211;45.774;15.892;2023-07-13T04:30:27;6.68;;;1.42;;
78860;SDS011;68211;45.774;15.892;2023-07-13T04:32:54;5.68;;;1.83;;
78860;SDS011;68211;45.774;15.892;2023-07-13T04:35:20;10.95;;;2.03;;
78860;SDS011;68211;45.774;15.892;2023-07-13T04:37:47;8.35;;;1.90;;
78860;SDS011;68211;45.774;15.892;2023-07-13T04:40:14;5.50;;;1.67;;
78860;SDS011;68211;45.774;15.892;2023-07-13T04:42:40;7.10;;;2.03;;
78860;SDS011;68211;45.774;15.892;2023-07-13T04:45:08;3.28;;;1.38;;
78860;SDS011;68211;45.774;15.892;2023-07-13T04:47:37;4.32;;;1.75;;
78860;SDS011;68211;45.774;15.892;2023-07-13T04:50:04;9.57;;;2.20;;
78860;SDS011;68211;45.774;15.892;2023-07-13T04:52:30;4.78;;;1.83;;
78860;SDS011;68211;45.774;15.892;2023-07-13T04:54:57;4.03;;;1.70;;
78860;SDS011;68211;45.774;15.892;2023-07-13T04:57:24;8.27;;;2.63;;
78860;SDS011;68211;45.774;15.892;2023-07-13T04:59:50;9.75;;;1.92;;
78860;SDS011;68211;45.774;15.892;2023-07-13T05:02:18;5.60;;;1.77;;
78860;SDS011;68211;45.774;15.892;2023-07-13T05:04:47;10.00;;;1.80;;
78860;SDS011;68211;45.774;15.892;2023-07-13T05:07:13;8.05;;;1.70;;
78860;SDS011;68211;45.774;15.892;2023-07-13T05:09:40;4.97;;;1.67;;
78860;SDS011;68211;45.774;15.892;2023-07-13T05:12:07;10.20;;;1.90;;
78860;SDS011;68211;45.774;15.892;2023-07-13T05:14:34;9.20;;;1.85;;
78860;SDS011;68211;45.774;15.892;2023-07-13T05:17:01;6.88;;;1.70;;
78860;SDS011;68211;45.774;15.892;2023-07-13T05:19:29;4.20;;;1.90;;
78860;SDS011;68211;45.774;15.892;2023-07-13T05:21:56;8.03;;;2.10;;
78860;SDS011;68211;45.774;15.892;2023-07-13T05:24:22;7.22;;;2.22;;
78860;SDS011;68211;45.774;15.892;2023-07-13T05:26:51;4.65;;;1.58;;
78860;SDS011;68211;45.774;15.892;2023-07-13T05:29:18;8.13;;;1.95;;
78860;SDS011;68211;45.774;15.892;2023-07-13T05:31:44;7.32;;;1.73;;
78860;SDS011;68211;45.774;15.892;2023-07-13T05:34:11;3.95;;;1.90;;
78860;SDS011;68211;45.774;15.892;2023-07-13T05:36:39;7.32;;;2.08;;
78860;SDS011;68211;45.774;15.892;2023-07-13T05:39:05;10.10;;;2.80;;
78860;SDS011;68211;45.774;15.892;2023-07-13T05:41:32;10.55;;;2.30;;
78860;SDS011;68211;45.774;15.892;2023-07-13T05:43:58;5.95;;;2.22;;
78860;SDS011;68211;45.774;15.892;2023-07-13T05:46:25;5.47;;;2.20;;
78860;SDS011;68211;45.774;15.892;2023-07-13T05:48:52;6.57;;;1.80;;
78860;SDS011;68211;45.774;15.892;2023-07-13T05:51:18;12.02;;;1.98;;
78860;SDS011;68211;45.774;15.892;2023-07-13T05:53:46;10.05;;;2.72;;
78860;SDS011;68211;45.774;15.892;2023-07-13T05:56:14;6.03;;;2.25;;
78860;SDS011;68211;45.774;15.892;2023-07-13T05:58:40;4.55;;;2.15;;
78860;SDS011;68211;45.774;15.892;2023-07-13T06:01:09;5.80;;;2.00;;
78860;SDS011;68211;45.774;15.892;2023-07-13T06:03:37;9.18;;;2.10;;
78860;SDS011;68211;45.774;15.892;2023-07-13T06:06:03;9.10;;;2.28;;
78860;SDS011;68211;45.774;15.892;2023-07-13T06:08:30;16.52;;;2.78;;
78860;SDS011;68211;45.774;15.892;2023-07-13T06:11:02;12.40;;;2.50;;
78860;SDS011;68211;45.774;15.892;2023-07-13T06:13:29;13.52;;;2.58;;
78860;SDS011;68211;45.774;15.892;2023-07-13T06:15:55;7.50;;;2.38;;
78860;SDS011;68211;45.774;15.892;2023-07-13T06:18:22;13.52;;;2.40;;
78860;SDS011;68211;45.774;15.892;2023-07-13T06:20:48;10.75;;;2.40;;
78860;SDS011;68211;45.774;15.892;2023-07-13T06:23:15;8.82;;;2.78;;
78860;SDS011;68211;45.774;15.892;2023-07-13T06:25:42;8.52;;;2.15;;
78860;SDS011;68211;45.774;15.892;2023-07-13T06:28:10;8.80;;;2.40;;
78860;SDS011;68211;45.774;15.892;2023-07-13T06:30:37;16.08;;;2.90;;
78860;SDS011;68211;45.774;15.892;2023-07-13T06:33:04;11.95;;;2.70;;
78860;SDS011;68211;45.774;15.892;2023-07-13T06:35:30;9.63;;;2.78;;
78860;SDS011;68211;45.774;15.892;2023-07-13T06:37:57;10.88;;;3.08;;
78860;SDS011;68211;45.774;15.892;2023-07-13T06:40:23;16.20;;;2.70;;
78860;SDS011;68211;45.774;15.892;2023-07-13T06:42:50;9.70;;;2.75;;
78860;SDS011;68211;45.774;15.892;2023-07-13T06:45:18;11.43;;;2.80;;
78860;SDS011;68211;45.774;15.892;2023-07-13T06:47:44;8.18;;;2.83;;
78860;SDS011;68211;45.774;15.892;2023-07-13T06:50:11;9.30;;;3.10;;
78860;SDS011;68211;45.774;15.892;2023-07-13T06:52:37;15.23;;;2.85;;
78860;SDS011;68211;45.774;15.892;2023-07-13T06:55:04;12.32;;;2.28;;
78860;SDS011;68211;45.774;15.892;2023-07-13T06:57:31;13.25;;;2.88;;
78860;SDS011;68211;45.774;15.892;2023-07-13T06:59:57;8.63;;;2.58;;
78860;SDS011;68211;45.774;15.892;2023-07-13T07:02:25;8.57;;;3.15;;
78860;SDS011;68211;45.774;15.892;2023-07-13T07:04:51;6.80;;;2.75;;
78860;SDS011;68211;45.774;15.892;2023-07-13T07:07:18;8.60;;;2.97;;
78860;SDS011;68211;45.774;15.892;2023-07-13T07:09:44;12.88;;;2.83;;
78860;SDS011;68211;45.774;15.892;2023-07-13T07:12:11;12.25;;;3.30;;
78860;SDS011;68211;45.774;15.892;2023-07-13T07:14:40;12.48;;;3.20;;
78860;SDS011;68211;45.774;15.892;2023-07-13T07:17:07;11.85;;;3.40;;
78860;SDS011;68211;45.774;15.892;2023-07-13T07:19:35;8.63;;;2.70;;
78860;SDS011;68211;45.774;15.892;2023-07-13T07:22:01;9.85;;;2.80;;
78860;SDS011;68211;45.774;15.892;2023-07-13T07:24:28;7.80;;;2.63;;
78860;SDS011;68211;45.774;15.892;2023-07-13T07:26:54;15.35;;;3.20;;
78860;SDS011;68211;45.774;15.892;2023-07-13T07:29:24;14.27;;;2.33;;
78860;SDS011;68211;45.774;15.892;2023-07-13T07:31:53;12.50;;;2.50;;
78860;SDS011;68211;45.774;15.892;2023-07-13T07:34:22;9.82;;;2.30;;
78860;SDS011;68211;45.774;15.892;2023-07-13T07:36:50;8.90;;;2.95;;
78860;SDS011;68211;45.774;15.892;2023-07-13T07:39:20;15.55;;;3.30;;
78860;SDS011;68211;45.774;15.892;2023-07-13T07:41:46;8.02;;;2.10;;
78860;SDS011;68211;45.774;15.892;2023-07-13T07:44:15;5.50;;;1.65;;
78860;SDS011;68211;45.774;15.892;2023-07-13T07:46:42;10.77;;;1.95;;
78860;SDS011;68211;45.774;15.892;2023-07-13T07:49:08;4.07;;;1.83;;
78860;SDS011;68211;45.774;15.892;2023-07-13T07:51:35;3.92;;;2.08;;
78860;SDS011;68211;45.774;15.892;2023-07-13T07:54:03;4.57;;;1.77;;
78860;SDS011;68211;45.774;15.892;2023-07-13T07:56:29;5.32;;;1.92;;
78860;SDS011;68211;45.774;15.892;2023-07-13T07:58:59;6.03;;;1.80;;
78860;SDS011;68211;45.774;15.892;2023-07-13T08:01:28;4.75;;;1.70;;
78860;SDS011;68211;45.774;15.892;2023-07-13T08:03:58;5.70;;;1.63;;
78860;SDS011;68211;45.774;15.892;2023-07-13T08:06:27;5.25;;;1.83;;
78860;SDS011;68211;45.774;15.892;2023-07-13T08:09:12;6.28;;;1.85;;
78860;SDS011;68211;45.774;15.892;2023-07-13T08:11:38;11.05;;;2.00;;
78860;SDS011;68211;45.774;15.892;2023-07-13T08:14:08;12.23;;;2.65;;
78860;SDS011;68211;45.774;15.892;2023-07-13T08:16:34;6.82;;;1.67;;
78860;SDS011;68211;45.774;15.892;2023-07-13T08:19:01;10.30;;;2.30;;
78860;SDS011;68211;45.774;15.892;2023-07-13T08:21:27;6.93;;;2.15;;
78860;SDS011;68211;45.774;15.892;2023-07-13T08:23:54;8.55;;;2.55;;
78860;SDS011;68211;45.774;15.892;2023-07-13T08:26:21;2.97;;;1.90;;
78860;SDS011;68211;45.774;15.892;2023-07-13T08:28:48;9.10;;;2.10;;
78860;SDS011;68211;45.774;15.892;2023-07-13T08:31:14;10.48;;;2.17;;
78860;SDS011;68211;45.774;15.892;2023-07-13T08:33:41;9.80;;;2.03;;
78860;SDS011;68211;45.774;15.892;2023-07-13T08:36:08;6.78;;;2.25;;
78860;SDS011;68211;45.774;15.892;2023-07-13T08:38:34;17.65;;;3.30;;
78860;SDS011;68211;45.774;15.892;2023-07-13T08:41:03;12.55;;;3.08;;
78860;SDS011;68211;45.774;15.892;2023-07-13T08:43:37;6.68;;;2.42;;
78860;SDS011;68211;45.774;15.892;2023-07-13T08:46:05;10.27;;;2.83;;
78860;SDS011;68211;45.774;15.892;2023-07-13T08:48:35;8.85;;;2.55;;
78860;SDS011;68211;45.774;15.892;2023-07-13T08:51:04;12.45;;;2.50;;
78860;SDS011;68211;45.774;15.892;2023-07-13T08:53:37;16.73;;;2.58;;
78860;SDS011;68211;45.774;15.892;2023-07-13T08:56:04;7.72;;;2.78;;
78860;SDS011;68211;45.774;15.892;2023-07-13T08:58:33;10.05;;;3.03;;
78860;SDS011;68211;45.774;15.892;2023-07-13T09:01:03;15.85;;;2.97;;
78860;SDS011;68211;45.774;15.892;2023-07-13T09:03:34;8.77;;;2.33;;
78860;SDS011;68211;45.774;15.892;2023-07-13T09:06:02;12.38;;;3.28;;
78860;SDS011;68211;45.774;15.892;2023-07-13T09:08:32;8.73;;;2.60;;
78860;SDS011;68211;45.774;15.892;2023-07-13T09:11:03;9.95;;;2.88;;
78860;SDS011;68211;45.774;15.892;2023-07-13T09:13:34;10.25;;;2.90;;
78860;SDS011;68211;45.774;15.892;2023-07-13T09:16:04;10.02;;;2.72;;
78860;SDS011;68211;45.774;15.892;2023-07-13T09:18:31;11.75;;;3.28;;
78860;SDS011;68211;45.774;15.892;2023-07-13T09:21:00;15.90;;;3.05;;
78860;SDS011;68211;45.774;15.892;2023-07-13T09:23:29;8.13;;;3.58;;
78860;SDS011;68211;45.774;15.892;2023-07-13T09:25:58;5.53;;;2.72;;
78860;SDS011;68211;45.774;15.892;2023-07-13T09:28:26;16.98;;;2.95;;
78860;SDS011;68211;45.774;15.892;2023-07-13T09:30:56;9.82;;;2.67;;
78860;SDS011;68211;45.774;15.892;2023-07-13T09:33:26;9.48;;;2.85;;
78860;SDS011;68211;45.774;15.892;2023-07-13T09:35:52;8.60;;;3.00;;
78860;SDS011;68211;45.774;15.892;2023-07-13T09:38:19;9.68;;;3.40;;
78860;SDS011;68211;45.774;15.892;2023-07-13T09:40:55;18.65;;;3.63;;
78860;SDS011;68211;45.774;15.892;2023-07-13T09:43:22;11.93;;;2.92;;
78860;SDS011;68211;45.774;15.892;2023-07-13T09:45:49;12.52;;;3.58;;
78860;SDS011;68211;45.774;15.892;2023-07-13T09:48:16;9.95;;;3.58;;
78860;SDS011;68211;45.774;15.892;2023-07-13T09:50:45;11.98;;;3.58;;
78860;SDS011;68211;45.774;15.892;2023-07-13T09:53:12;8.47;;;3.40;;
78860;SDS011;68211;45.774;15.892;2023-07-13T09:55:39;13.10;;;3.35;;
78860;SDS011;68211;45.774;15.892;2023-07-13T09:58:08;12.88;;;3.55;;
78860;SDS011;68211;45.774;15.892;2023-07-13T10:00:35;10.35;;;3.22;;
78860;SDS011;68211;45.774;15.892;2023-07-13T10:03:03;11.82;;;3.45;;
78860;SDS011;68211;45.774;15.892;2023-07-13T10:05:37;15.95;;;3.72;;
78860;SDS011;68211;45.774;15.892;2023-07-13T10:08:05;8.90;;;3.17;;
78860;SDS011;68211;45.774;15.892;2023-07-13T10:10:31;7.45;;;3.22;;
78860;SDS011;68211;45.774;15.892;2023-07-13T10:12:58;6.80;;;3.30;;
78860;SDS011;68211;45.774;15.892;2023-07-13T10:15:24;7.95;;;3.38;;
78860;SDS011;68211;45.774;15.892;2023-07-13T10:17:52;17.45;;;3.70;;
78860;SDS011;68211;45.774;15.892;2023-07-13T10:20:20;10.52;;;3.25;;
78860;SDS011;68211;45.774;15.892;2023-07-13T10:22:49;10.63;;;3.83;;
78860;SDS011;68211;45.774;15.892;2023-07-13T10:25:19;12.38;;;3.15;;
78860;SDS011;68211;45.774;15.892;2023-07-13T10:27:46;7.97;;;2.72;;
78860;SDS011;68211;45.774;15.892;2023-07-13T10:30:14;14.23;;;3.28;;
78860;SDS011;68211;45.774;15.892;2023-07-13T10:32:42;12.93;;;3.95;;
78860;SDS011;68211;45.774;15.892;2023-07-13T10:35:09;9.30;;;3.25;;
78860;SDS011;68211;45.774;15.892;2023-07-13T10:37:39;6.20;;;3.33;;
78860;SDS011;68211;45.774;15.892;2023-07-13T10:40:11;13.73;;;3.67;;
78860;SDS011;68211;45.774;15.892;2023-07-13T10:42:40;11.65;;;3.47;;
78860;SDS011;68211;45.774;15.892;2023-07-13T10:45:14;13.90;;;3.95;;
78860;SDS011;68211;45.774;15.892;2023-07-13T10:47:40;9.40;;;3.50;;
78860;SDS011;68211;45.774;15.892;2023-07-13T10:50:08;8.27;;;3.60;;
78860;SDS011;68211;45.774;15.892;2023-07-13T10:52:42;13.70;;;3.38;;
78860;SDS011;68211;45.774;15.892;2023-07-13T10:57:51;16.63;;;4.03;;
78860;SDS011;68211;45.774;15.892;2023-07-13T11:00:18;14.60;;;3.43;;
78860;SDS011;68211;45.774;15.892;2023-07-13T11:02:50;7.35;;;3.30;;
78860;SDS011;68211;45.774;15.892;2023-07-13T11:05:25;9.07;;;3.63;;
78860;SDS011;68211;45.774;15.892;2023-07-13T11:07:52;18.15;;;3.60;;
78860;SDS011;68211;45.774;15.892;2023-07-13T11:13:03;7.35;;;3.70;;
78860;SDS011;68211;45.774;15.892;2023-07-13T11:15:32;18.67;;;4.03;;
78860;SDS011;68211;45.774;15.892;2023-07-13T11:18:02;9.20;;;3.38;;
78860;SDS011;68211;45.774;15.892;2023-07-13T11:20:33;7.85;;;3.38;;
78860;SDS011;68211;45.774;15.892;2023-07-13T11:23:17;14.52;;;3.97;;
78860;SDS011;68211;45.774;15.892;2023-07-13T11:25:44;7.82;;;3.50;;
78860;SDS011;68211;45.774;15.892;2023-07-13T11:28:16;8.98;;;3.47;;
78860;SDS011;68211;45.774;15.892;2023-07-13T11:30:43;11.13;;;3.80;;
78860;SDS011;68211;45.774;15.892;2023-07-13T11:35:40;13.30;;;3.70;;
78860;SDS011;68211;45.774;15.892;2023-07-13T11:38:12;23.40;;;4.10;;
78860;SDS011;68211;45.774;15.892;2023-07-13T11:40:39;11.43;;;3.80;;
78860;SDS011;68211;45.774;15.892;2023-07-13T11:43:06;20.75;;;4.25;;
78860;SDS011;68211;45.774;15.892;2023-07-13T11:45:33;17.27;;;3.63;;
78860;SDS011;68211;45.774;15.892;2023-07-13T11:48:17;9.00;;;3.90;;
78860;SDS011;68211;45.774;15.892;2023-07-13T11:50:48;13.57;;;4.05;;
78860;SDS011;68211;45.774;15.892;2023-07-13T11:53:15;9.65;;;3.90;;
78860;SDS011;68211;45.774;15.892;2023-07-13T11:55:42;10.20;;;3.97;;
78860;SDS011;68211;45.774;15.892;2023-07-13T11:58:08;13.93;;;3.80;;
78860;SDS011;68211;45.774;15.892;2023-07-13T12:00:37;12.88;;;4.75;;
78860;SDS011;68211;45.774;15.892;2023-07-13T12:03:04;13.00;;;4.10;;
78860;SDS011;68211;45.774;15.892;2023-07-13T12:05:31;12.32;;;4.20;;
78860;SDS011;68211;45.774;15.892;2023-07-13T12:07:58;9.27;;;3.80;;
78860;SDS011;68211;45.774;15.892;2023-07-13T12:10:25;12.95;;;4.25;;
78860;SDS011;68211;45.774;15.892;2023-07-13T12:12:53;14.00;;;4.18;;
78860;SDS011;68211;45.774;15.892;2023-07-13T12:15:19;14.68;;;4.05;;
78860;SDS011;68211;45.774;15.892;2023-07-13T12:17:48;8.85;;;3.60;;
78860;SDS011;68211;45.774;15.892;2023-07-13T12:20:18;8.10;;;3.65;;
78860;SDS011;68211;45.774;15.892;2023-07-13T12:22:45;12.50;;;4.13;;
78860;SDS011;68211;45.774;15.892;2023-07-13T12:25:12;18.15;;;4.35;;
78860;SDS011;68211;45.774;15.892;2023-07-13T12:27:39;13.07;;;4.03;;
78860;SDS011;68211;45.774;15.892;2023-07-13T12:30:15;11.52;;;3.70;;
78860;SDS011;68211;45.774;15.892;2023-07-13T12:32:55;20.13;;;4.00;;
78860;SDS011;68211;45.774;15.892;2023-07-13T12:35:22;14.02;;;3.88;;
78860;SDS011;68211;45.774;15.892;2023-07-13T12:37:48;18.35;;;4.07;;
78860;SDS011;68211;45.774;15.892;2023-07-13T12:40:15;11.95;;;4.05;;
78860;SDS011;68211;45.774;15.892;2023-07-13T12:42:42;10.57;;;3.90;;
78860;SDS011;68211;45.774;15.892;2023-07-13T12:45:12;13.43;;;4.10;;
78860;SDS011;68211;45.774;15.892;2023-07-13T12:47:41;11.75;;;4.15;;
78860;SDS011;68211;45.774;15.892;2023-07-13T12:50:14;18.15;;;4.15;;
78860;SDS011;68211;45.774;15.892;2023-07-13T12:52:42;27.83;;;4.22;;
78860;SDS011;68211;45.774;15.892;2023-07-13T12:55:11;25.38;;;3.80;;
78860;SDS011;68211;45.774;15.892;2023-07-13T12:57:39;8.73;;;3.63;;
78860;SDS011;68211;45.774;15.892;2023-07-13T13:00:06;20.88;;;4.25;;
78860;SDS011;68211;45.774;15.892;2023-07-13T13:02:45;10.80;;;3.42;;
78860;SDS011;68211;45.774;15.892;2023-07-13T13:05:16;11.27;;;3.97;;
78860;SDS011;68211;45.774;15.892;2023-07-13T13:07:43;12.75;;;3.97;;
78860;SDS011;68211;45.774;15.892;2023-07-13T13:10:11;9.63;;;3.45;;
78860;SDS011;68211;45.774;15.892;2023-07-13T13:12:37;19.83;;;3.55;;
78860;SDS011;68211;45.774;15.892;2023-07-13T13:15:07;19.50;;;3.63;;
78860;SDS011;68211;45.774;15.892;2023-07-13T13:17:33;8.40;;;3.03;;
78860;SDS011;68211;45.774;15.892;2023-07-13T13:20:00;19.77;;;3.40;;
78860;SDS011;68211;45.774;15.892;2023-07-13T13:22:28;18.73;;;3.80;;
78860;SDS011;68211;45.774;15.892;2023-07-13T13:24:54;24.60;;;3.85;;
78860;SDS011;68211;45.774;15.892;2023-07-13T13:27:21;23.35;;;4.45;;
78860;SDS011;68211;45.774;15.892;2023-07-13T13:29:49;19.60;;;4.00;;
78860;SDS011;68211;45.774;15.892;2023-07-13T13:32:15;20.65;;;4.93;;
78860;SDS011;68211;45.774;15.892;2023-07-13T13:34:42;18.48;;;3.75;;
78860;SDS011;68211;45.774;15.892;2023-07-13T13:37:18;16.60;;;4.43;;
78860;SDS011;68211;45.774;15.892;2023-07-13T13:39:47;19.02;;;4.25;;
78860;SDS011;68211;45.774;15.892;2023-07-13T13:42:33;11.35;;;3.70;;
78860;SDS011;68211;45.774;15.892;2023-07-13T13:44:59;15.60;;;3.28;;
78860;SDS011;68211;45.774;15.892;2023-07-13T13:47:28;10.80;;;3.50;;
78860;SDS011;68211;45.774;15.892;2023-07-13T13:49:55;13.45;;;3.50;;
78860;SDS011;68211;45.774;15.892;2023-07-13T13:52:22;11.95;;;3.58;;
78860;SDS011;68211;45.774;15.892;2023-07-13T13:54:50;11.05;;;3.75;;
78860;SDS011;68211;45.774;15.892;2023-07-13T13:57:16;5.30;;;2.40;;
78860;SDS011;68211;45.774;15.892;2023-07-13T13:59:43;5.45;;;2.20;;
78860;SDS011;68211;45.774;15.892;2023-07-13T14:02:20;10.40;;;2.65;;
78860;SDS011;68211;45.774;15.892;2023-07-13T14:04:49;4.68;;;2.38;;
78860;SDS011;68211;45.774;15.892;2023-07-13T14:07:16;11.07;;;2.60;;
78860;SDS011;68211;45.774;15.892;2023-07-13T14:09:43;7.28;;;2.40;;
78860;SDS011;68211;45.774;15.892;2023-07-13T14:12:11;11.48;;;2.70;;
78860;SDS011;68211;45.774;15.892;2023-07-13T14:14:37;10.60;;;2.22;;
78860;SDS011;68211;45.774;15.892;2023-07-13T14:17:04;5.88;;;2.10;;
78860;SDS011;68211;45.774;15.892;2023-07-13T14:19:31;4.38;;;2.75;;
78860;SDS011;68211;45.774;15.892;2023-07-13T14:21:57;8.63;;;2.55;;
78860;SDS011;68211;45.774;15.892;2023-07-13T14:24:24;9.88;;;2.83;;
78860;SDS011;68211;45.774;15.892;2023-07-13T14:26:50;4.32;;;2.50;;
78860;SDS011;68211;45.774;15.892;2023-07-13T14:29:18;6.68;;;2.30;;
78860;SDS011;68211;45.774;15.892;2023-07-13T14:31:49;5.93;;;2.80;;
78860;SDS011;68211;45.774;15.892;2023-07-13T14:34:16;4.50;;;2.60;;
78860;SDS011;68211;45.774;15.892;2023-07-13T14:36:43;7.22;;;3.00;;